logo
Rechercher aéroport 
image banner adimage banner adimage banner ad
image banner ad

FABT - Bethesda Road

Situé à Bethesda, South Africa

ICAO - FABT, IATA -

Données fournies par Airmate  

Information générale

Coordonnées: S31°52'23" E24°47'49"
Élévation : 4629 feet MSL.
 
Voir autres Aéroports à Eastern Cape

Données opérationnelles

Special qualification required
Heure actuelle UTC:
Heure actuelle locale:
Météo à : - ( 0 km )
METAR: YSRI 180102Z AUTO 20018G28KT 9999 // BKN047 BKN055 15/07 Q1023
Voir NOTAMs / SUP AIP / TFR affectant cet aéroport [VIEW]
Fréquences de communication: [VIEW]

Pistes:

Identifiant RWYQFULongueur (ft)Largeur (ft)SurfaceLDA (ft)
01330°426520SAND
19150°426520SAND

Coordonnées de l'aéroport

Adresse: Bethesda South Africa

Vue satellite de FABT